<?xml version="1.0" encoding="UTF-8" standalone="no" ?>
<gpx xmlns="http://www.topografix.com/GPX/1/1" xmlns:xsi="http://www.w3.org/2001/XMLSchema-instance" xsi:schemaLocation="http://www.topografix.com/GPX/1/1 http://www.topografix.com/GPX/1/1/gpx.xsd" version="1.1" creator="VisuGPX - https://www.visugpx.com">
  <metadata>
    <name>samuscup2016</name>
    <desc><![CDATA[Garches 01 / Elan 45 PEP'S / First 34.7 / Dufour 410
21 au 27 mai
]]></desc>
  </metadata>
  <trk>
    <name><![CDATA[Tracé actuel: 27 MAI 2016 12:37]]></name>
    <trkseg>
      <trkpt lat="43.04134" lon="5.84617">
        <ele>-10.92</ele>
        <time>2016-05-27T10:37:21Z</time>
      </trkpt>
      <trkpt lat="43.04138" lon="5.84657">
        <ele>-8.51</ele>
        <time>2016-05-27T10:37:34Z</time>
      </trkpt>
      <trkpt lat="43.04143" lon="5.84693">
        <ele>-8.51</ele>
        <time>2016-05-27T10:37:46Z</time>
      </trkpt>
      <trkpt lat="43.04148" lon="5.84736">
        <ele>-8.51</ele>
        <time>2016-05-27T10:37:59Z</time>
      </trkpt>
      <trkpt lat="43.04152" lon="5.84773">
        <ele>-8.51</ele>
        <time>2016-05-27T10:38:10Z</time>
      </trkpt>
      <trkpt lat="43.04157" lon="5.84812">
        <ele>-7.55</ele>
        <time>2016-05-27T10:38:22Z</time>
      </trkpt>
      <trkpt lat="43.04163" lon="5.84832">
        <ele>-8.51</ele>
        <time>2016-05-27T10:38:29Z</time>
      </trkpt>
      <trkpt lat="43.04166" lon="5.84844">
        <ele>-9</ele>
        <time>2016-05-27T10:38:33Z</time>
      </trkpt>
      <trkpt lat="43.04167" lon="5.84885">
        <ele>-9</ele>
        <time>2016-05-27T10:38:46Z</time>
      </trkpt>
      <trkpt lat="43.04166" lon="5.84931">
        <ele>-10.44</ele>
        <time>2016-05-27T10:39:00Z</time>
      </trkpt>
      <trkpt lat="43.04175" lon="5.84967">
        <ele>-11.4</ele>
        <time>2016-05-27T10:39:12Z</time>
      </trkpt>
      <trkpt lat="43.04191" lon="5.85018">
        <ele>-13.8</ele>
        <time>2016-05-27T10:39:28Z</time>
      </trkpt>
      <trkpt lat="43.04207" lon="5.85063">
        <ele>-14.76</ele>
        <time>2016-05-27T10:39:42Z</time>
      </trkpt>
      <trkpt lat="43.04218" lon="5.85109">
        <ele>-12.84</ele>
        <time>2016-05-27T10:39:56Z</time>
      </trkpt>
      <trkpt lat="43.0423" lon="5.85175">
        <ele>-11.4</ele>
        <time>2016-05-27T10:40:15Z</time>
      </trkpt>
      <trkpt lat="43.04239" lon="5.85213">
        <ele>-12.36</ele>
        <time>2016-05-27T10:40:26Z</time>
      </trkpt>
      <trkpt lat="43.04248" lon="5.85248">
        <ele>-14.28</ele>
        <time>2016-05-27T10:40:37Z</time>
      </trkpt>
      <trkpt lat="43.04256" lon="5.85293">
        <ele>-15.24</ele>
        <time>2016-05-27T10:40:51Z</time>
      </trkpt>
      <trkpt lat="43.04268" lon="5.8533">
        <ele>-15.24</ele>
        <time>2016-05-27T10:41:03Z</time>
      </trkpt>
      <trkpt lat="43.04275" lon="5.85356">
        <ele>-14.28</ele>
        <time>2016-05-27T10:41:11Z</time>
      </trkpt>
      <trkpt lat="43.04278" lon="5.85371">
        <ele>-13.32</ele>
        <time>2016-05-27T10:41:16Z</time>
      </trkpt>
      <trkpt lat="43.04289" lon="5.85411">
        <ele>-12.84</ele>
        <time>2016-05-27T10:41:29Z</time>
      </trkpt>
      <trkpt lat="43.043" lon="5.8546">
        <ele>-11.88</ele>
        <time>2016-05-27T10:41:44Z</time>
      </trkpt>
      <trkpt lat="43.04309" lon="5.85503">
        <ele>-12.36</ele>
        <time>2016-05-27T10:41:57Z</time>
      </trkpt>
      <trkpt lat="43.04317" lon="5.85555">
        <ele>-13.8</ele>
        <time>2016-05-27T10:42:12Z</time>
      </trkpt>
      <trkpt lat="43.04327" lon="5.85596">
        <ele>-14.76</ele>
        <time>2016-05-27T10:42:25Z</time>
      </trkpt>
      <trkpt lat="43.04339" lon="5.85633">
        <ele>-13.32</ele>
        <time>2016-05-27T10:42:37Z</time>
      </trkpt>
      <trkpt lat="43.0435" lon="5.85672">
        <ele>-12.36</ele>
        <time>2016-05-27T10:42:49Z</time>
      </trkpt>
      <trkpt lat="43.04363" lon="5.85723">
        <ele>-11.4</ele>
        <time>2016-05-27T10:43:04Z</time>
      </trkpt>
      <trkpt lat="43.0437" lon="5.85757">
        <ele>-10.44</ele>
        <time>2016-05-27T10:43:15Z</time>
      </trkpt>
      <trkpt lat="43.04373" lon="5.8577">
        <ele>-9.96</ele>
        <time>2016-05-27T10:43:19Z</time>
      </trkpt>
      <trkpt lat="43.04382" lon="5.85813">
        <ele>-8.03</ele>
        <time>2016-05-27T10:43:32Z</time>
      </trkpt>
      <trkpt lat="43.0439" lon="5.85842">
        <ele>-8.51</ele>
        <time>2016-05-27T10:43:42Z</time>
      </trkpt>
      <trkpt lat="43.04395" lon="5.85877">
        <ele>-8.03</ele>
        <time>2016-05-27T10:43:53Z</time>
      </trkpt>
      <trkpt lat="43.04403" lon="5.85907">
        <ele>-7.07</ele>
        <time>2016-05-27T10:44:03Z</time>
      </trkpt>
      <trkpt lat="43.04409" lon="5.85941">
        <ele>-6.11</ele>
        <time>2016-05-27T10:44:13Z</time>
      </trkpt>
      <trkpt lat="43.04412" lon="5.85965">
        <ele>-5.63</ele>
        <time>2016-05-27T10:44:20Z</time>
      </trkpt>
      <trkpt lat="43.04421" lon="5.86009">
        <ele>-5.15</ele>
        <time>2016-05-27T10:44:33Z</time>
      </trkpt>
      <trkpt lat="43.04427" lon="5.86046">
        <ele>-5.63</ele>
        <time>2016-05-27T10:44:44Z</time>
      </trkpt>
      <trkpt lat="43.04437" lon="5.86099">
        <ele>-6.59</ele>
        <time>2016-05-27T10:44:59Z</time>
      </trkpt>
      <trkpt lat="43.04445" lon="5.86138">
        <ele>-6.11</ele>
        <time>2016-05-27T10:45:11Z</time>
      </trkpt>
      <trkpt lat="43.04456" lon="5.86186">
        <ele>-5.15</ele>
        <time>2016-05-27T10:45:25Z</time>
      </trkpt>
      <trkpt lat="43.04465" lon="5.86228">
        <ele>-4.67</ele>
        <time>2016-05-27T10:45:37Z</time>
      </trkpt>
      <trkpt lat="43.04471" lon="5.86249">
        <ele>-4.67</ele>
        <time>2016-05-27T10:45:43Z</time>
      </trkpt>
      <trkpt lat="43.04475" lon="5.86266">
        <ele>-3.71</ele>
        <time>2016-05-27T10:45:48Z</time>
      </trkpt>
      <trkpt lat="43.04479" lon="5.86287">
        <ele>-2.75</ele>
        <time>2016-05-27T10:45:54Z</time>
      </trkpt>
      <trkpt lat="43.04484" lon="5.86312">
        <ele>-2.27</ele>
        <time>2016-05-27T10:46:02Z</time>
      </trkpt>
      <trkpt lat="43.04495" lon="5.86355">
        <ele>-3.71</ele>
        <time>2016-05-27T10:46:15Z</time>
      </trkpt>
      <trkpt lat="43.04501" lon="5.86403">
        <ele>-4.67</ele>
        <time>2016-05-27T10:46:28Z</time>
      </trkpt>
      <trkpt lat="43.0451" lon="5.86443">
        <ele>-3.71</ele>
        <time>2016-05-27T10:46:39Z</time>
      </trkpt>
      <trkpt lat="43.04518" lon="5.86485">
        <ele>-4.19</ele>
        <time>2016-05-27T10:46:51Z</time>
      </trkpt>
      <trkpt lat="43.04526" lon="5.8653">
        <ele>-6.11</ele>
        <time>2016-05-27T10:47:04Z</time>
      </trkpt>
      <trkpt lat="43.04536" lon="5.86575">
        <ele>-3.23</ele>
        <time>2016-05-27T10:47:17Z</time>
      </trkpt>
      <trkpt lat="43.04544" lon="5.86602">
        <ele>-2.27</ele>
        <time>2016-05-27T10:47:25Z</time>
      </trkpt>
      <trkpt lat="43.04549" lon="5.86616">
        <ele>-1.79</ele>
        <time>2016-05-27T10:47:29Z</time>
      </trkpt>
      <trkpt lat="43.04563" lon="5.86676">
        <ele>-1.3</ele>
        <time>2016-05-27T10:47:45Z</time>
      </trkpt>
      <trkpt lat="43.04573" lon="5.86719">
        <ele>-1.3</ele>
        <time>2016-05-27T10:47:56Z</time>
      </trkpt>
      <trkpt lat="43.04586" lon="5.86752">
        <ele>-1.3</ele>
        <time>2016-05-27T10:48:06Z</time>
      </trkpt>
      <trkpt lat="43.046" lon="5.86798">
        <ele>-2.27</ele>
        <time>2016-05-27T10:48:19Z</time>
      </trkpt>
      <trkpt lat="43.04602" lon="5.86806">
        <ele>-2.27</ele>
        <time>2016-05-27T10:48:21Z</time>
      </trkpt>
      <trkpt lat="43.04619" lon="5.86859">
        <ele>-1.79</ele>
        <time>2016-05-27T10:48:36Z</time>
      </trkpt>
      <trkpt lat="43.04624" lon="5.86911">
        <ele>-1.3</ele>
        <time>2016-05-27T10:48:50Z</time>
      </trkpt>
      <trkpt lat="43.0463" lon="5.86968">
        <ele>-1.79</ele>
        <time>2016-05-27T10:49:05Z</time>
      </trkpt>
      <trkpt lat="43.04632" lon="5.87016">
        <ele>-1.3</ele>
        <time>2016-05-27T10:49:18Z</time>
      </trkpt>
      <trkpt lat="43.04641" lon="5.87057">
        <ele>-3.23</ele>
        <time>2016-05-27T10:49:30Z</time>
      </trkpt>
      <trkpt lat="43.04652" lon="5.87104">
        <ele>-3.71</ele>
        <time>2016-05-27T10:49:43Z</time>
      </trkpt>
      <trkpt lat="43.04665" lon="5.87145">
        <ele>-3.71</ele>
        <time>2016-05-27T10:49:55Z</time>
      </trkpt>
      <trkpt lat="43.04678" lon="5.87192">
        <ele>-4.19</ele>
        <time>2016-05-27T10:50:08Z</time>
      </trkpt>
      <trkpt lat="43.0469" lon="5.87232">
        <ele>-4.19</ele>
        <time>2016-05-27T10:50:19Z</time>
      </trkpt>
      <trkpt lat="43.04703" lon="5.87287">
        <ele>-4.67</ele>
        <time>2016-05-27T10:50:34Z</time>
      </trkpt>
      <trkpt lat="43.04715" lon="5.87328">
        <ele>-6.11</ele>
        <time>2016-05-27T10:50:45Z</time>
      </trkpt>
      <trkpt lat="43.04726" lon="5.87371">
        <ele>-6.59</ele>
        <time>2016-05-27T10:50:57Z</time>
      </trkpt>
      <trkpt lat="43.04737" lon="5.87414">
        <ele>-7.07</ele>
        <time>2016-05-27T10:51:10Z</time>
      </trkpt>
      <trkpt lat="43.04751" lon="5.87468">
        <ele>-7.07</ele>
        <time>2016-05-27T10:51:26Z</time>
      </trkpt>
      <trkpt lat="43.04766" lon="5.87512">
        <ele>-5.15</ele>
        <time>2016-05-27T10:51:39Z</time>
      </trkpt>
      <trkpt lat="43.04782" lon="5.87562">
        <ele>-5.15</ele>
        <time>2016-05-27T10:51:53Z</time>
      </trkpt>
      <trkpt lat="43.04798" lon="5.87612">
        <ele>-3.71</ele>
        <time>2016-05-27T10:52:07Z</time>
      </trkpt>
      <trkpt lat="43.04812" lon="5.87651">
        <ele>-4.19</ele>
        <time>2016-05-27T10:52:18Z</time>
      </trkpt>
      <trkpt lat="43.04832" lon="5.87696">
        <ele>-5.15</ele>
        <time>2016-05-27T10:52:31Z</time>
      </trkpt>
      <trkpt lat="43.04848" lon="5.87747">
        <ele>-3.71</ele>
        <time>2016-05-27T10:52:45Z</time>
      </trkpt>
      <trkpt lat="43.04858" lon="5.8779">
        <ele>-0.82</ele>
        <time>2016-05-27T10:52:57Z</time>
      </trkpt>
      <trkpt lat="43.0487" lon="5.87841">
        <ele>0.62</ele>
        <time>2016-05-27T10:53:11Z</time>
      </trkpt>
      <trkpt lat="43.04889" lon="5.87898">
        <ele>0.14</ele>
        <time>2016-05-27T10:53:27Z</time>
      </trkpt>
      <trkpt lat="43.04905" lon="5.87945">
        <ele>-0.82</ele>
        <time>2016-05-27T10:53:40Z</time>
      </trkpt>
      <trkpt lat="43.04922" lon="5.87997">
        <ele>0.14</ele>
        <time>2016-05-27T10:53:55Z</time>
      </trkpt>
      <trkpt lat="43.04937" lon="5.88045">
        <ele>1.58</ele>
        <time>2016-05-27T10:54:09Z</time>
      </trkpt>
      <trkpt lat="43.04952" lon="5.88104">
        <ele>2.54</ele>
        <time>2016-05-27T10:54:25Z</time>
      </trkpt>
      <trkpt lat="43.04967" lon="5.88146">
        <ele>2.06</ele>
        <time>2016-05-27T10:54:37Z</time>
      </trkpt>
      <trkpt lat="43.04985" lon="5.88196">
        <ele>0.62</ele>
        <time>2016-05-27T10:54:51Z</time>
      </trkpt>
      <trkpt lat="43.04996" lon="5.88243">
        <ele>-1.3</ele>
        <time>2016-05-27T10:55:04Z</time>
      </trkpt>
      <trkpt lat="43.05012" lon="5.88303">
        <ele>-2.27</ele>
        <time>2016-05-27T10:55:21Z</time>
      </trkpt>
      <trkpt lat="43.05025" lon="5.88346">
        <ele>-1.79</ele>
        <time>2016-05-27T10:55:34Z</time>
      </trkpt>
      <trkpt lat="43.05041" lon="5.88392">
        <ele>-1.3</ele>
        <time>2016-05-27T10:55:47Z</time>
      </trkpt>
      <trkpt lat="43.05053" lon="5.88438">
        <ele>-0.34</ele>
        <time>2016-05-27T10:56:00Z</time>
      </trkpt>
      <trkpt lat="43.05066" lon="5.88489">
        <ele>0.14</ele>
        <time>2016-05-27T10:56:14Z</time>
      </trkpt>
      <trkpt lat="43.0508" lon="5.88544">
        <ele>-0.82</ele>
        <time>2016-05-27T10:56:29Z</time>
      </trkpt>
      <trkpt lat="43.0509" lon="5.88595">
        <ele>-1.79</ele>
        <time>2016-05-27T10:56:43Z</time>
      </trkpt>
      <trkpt lat="43.05103" lon="5.88641">
        <ele>-3.23</ele>
        <time>2016-05-27T10:56:56Z</time>
      </trkpt>
      <trkpt lat="43.05119" lon="5.88696">
        <ele>-6.11</ele>
        <time>2016-05-27T10:57:11Z</time>
      </trkpt>
      <trkpt lat="43.05132" lon="5.88756">
        <ele>-8.51</ele>
        <time>2016-05-27T10:57:27Z</time>
      </trkpt>
      <trkpt lat="43.05151" lon="5.88825">
        <ele>-10.92</ele>
        <time>2016-05-27T10:57:46Z</time>
      </trkpt>
      <trkpt lat="43.05164" lon="5.88871">
        <ele>-11.4</ele>
        <time>2016-05-27T10:57:59Z</time>
      </trkpt>
      <trkpt lat="43.0518" lon="5.88933">
        <ele>-10.44</ele>
        <time>2016-05-27T10:58:16Z</time>
      </trkpt>
      <trkpt lat="43.05194" lon="5.88989">
        <ele>-9.96</ele>
        <time>2016-05-27T10:58:32Z</time>
      </trkpt>
      <trkpt lat="43.05204" lon="5.89035">
        <ele>-9</ele>
        <time>2016-05-27T10:58:46Z</time>
      </trkpt>
      <trkpt lat="43.05216" lon="5.8908">
        <ele>-8.51</ele>
        <time>2016-05-27T10:59:00Z</time>
      </trkpt>
      <trkpt lat="43.05227" lon="5.89126">
        <ele>-6.59</ele>
        <time>2016-05-27T10:59:13Z</time>
      </trkpt>
      <trkpt lat="43.05238" lon="5.89169">
        <ele>-5.63</ele>
        <time>2016-05-27T10:59:25Z</time>
      </trkpt>
      <trkpt lat="43.0525" lon="5.89231">
        <ele>-6.59</ele>
        <time>2016-05-27T10:59:41Z</time>
      </trkpt>
      <trkpt lat="43.05263" lon="5.89293">
        <ele>-7.07</ele>
        <time>2016-05-27T10:59:58Z</time>
      </trkpt>
      <trkpt lat="43.0527" lon="5.89343">
        <ele>-7.07</ele>
        <time>2016-05-27T11:00:13Z</time>
      </trkpt>
      <trkpt lat="43.05282" lon="5.89405">
        <ele>-8.51</ele>
        <time>2016-05-27T11:00:30Z</time>
      </trkpt>
      <trkpt lat="43.05294" lon="5.89453">
        <ele>-9.48</ele>
        <time>2016-05-27T11:00:45Z</time>
      </trkpt>
      <trkpt lat="43.05309" lon="5.89514">
        <ele>-8.51</ele>
        <time>2016-05-27T11:01:03Z</time>
      </trkpt>
      <trkpt lat="43.05322" lon="5.89567">
        <ele>-8.03</ele>
        <time>2016-05-27T11:01:18Z</time>
      </trkpt>
      <trkpt lat="43.05333" lon="5.89608">
        <ele>-6.11</ele>
        <time>2016-05-27T11:01:30Z</time>
      </trkpt>
      <trkpt lat="43.05344" lon="5.89674">
        <ele>-4.67</ele>
        <time>2016-05-27T11:01:48Z</time>
      </trkpt>
      <trkpt lat="43.05346" lon="5.89742">
        <ele>-5.15</ele>
        <time>2016-05-27T11:02:06Z</time>
      </trkpt>
      <trkpt lat="43.05358" lon="5.89794">
        <ele>-4.19</ele>
        <time>2016-05-27T11:02:21Z</time>
      </trkpt>
      <trkpt lat="43.05366" lon="5.89831">
        <ele>-3.23</ele>
        <time>2016-05-27T11:02:32Z</time>
      </trkpt>
      <trkpt lat="43.05375" lon="5.89864">
        <ele>-3.23</ele>
        <time>2016-05-27T11:02:42Z</time>
      </trkpt>
      <trkpt lat="43.05387" lon="5.89911">
        <ele>-2.27</ele>
        <time>2016-05-27T11:02:56Z</time>
      </trkpt>
      <trkpt lat="43.05403" lon="5.89956">
        <ele>-3.23</ele>
        <time>2016-05-27T11:03:09Z</time>
      </trkpt>
      <trkpt lat="43.05413" lon="5.90009">
        <ele>-4.19</ele>
        <time>2016-05-27T11:03:23Z</time>
      </trkpt>
      <trkpt lat="43.05422" lon="5.90058">
        <ele>-6.59</ele>
        <time>2016-05-27T11:03:36Z</time>
      </trkpt>
      <trkpt lat="43.05431" lon="5.9011">
        <ele>-7.55</ele>
        <time>2016-05-27T11:03:50Z</time>
      </trkpt>
      <trkpt lat="43.0544" lon="5.90168">
        <ele>-6.59</ele>
        <time>2016-05-27T11:04:06Z</time>
      </trkpt>
      <trkpt lat="43.05445" lon="5.90223">
        <ele>-6.11</ele>
        <time>2016-05-27T11:04:21Z</time>
      </trkpt>
      <trkpt lat="43.05451" lon="5.90261">
        <ele>-4.67</ele>
        <time>2016-05-27T11:04:32Z</time>
      </trkpt>
      <trkpt lat="43.0546" lon="5.90314">
        <ele>-4.67</ele>
        <time>2016-05-27T11:04:47Z</time>
      </trkpt>
      <trkpt lat="43.05471" lon="5.90361">
        <ele>-5.63</ele>
        <time>2016-05-27T11:05:01Z</time>
      </trkpt>
      <trkpt lat="43.05475" lon="5.90409">
        <ele>-6.11</ele>
        <time>2016-05-27T11:05:15Z</time>
      </trkpt>
      <trkpt lat="43.05477" lon="5.90435">
        <ele>-4.67</ele>
        <time>2016-05-27T11:05:22Z</time>
      </trkpt>
      <trkpt lat="43.05483" lon="5.90455">
        <ele>-4.19</ele>
        <time>2016-05-27T11:05:29Z</time>
      </trkpt>
      <trkpt lat="43.05495" lon="5.90515">
        <ele>-3.23</ele>
        <time>2016-05-27T11:05:48Z</time>
      </trkpt>
      <trkpt lat="43.05503" lon="5.90581">
        <ele>-2.27</ele>
        <time>2016-05-27T11:06:07Z</time>
      </trkpt>
      <trkpt lat="43.05509" lon="5.90624">
        <ele>-2.27</ele>
        <time>2016-05-27T11:06:20Z</time>
      </trkpt>
      <trkpt lat="43.0552" lon="5.90684">
        <ele>-1.79</ele>
        <time>2016-05-27T11:06:37Z</time>
      </trkpt>
      <trkpt lat="43.05535" lon="5.90742">
        <ele>-1.3</ele>
        <time>2016-05-27T11:06:55Z</time>
      </trkpt>
      <trkpt lat="43.05549" lon="5.90797">
        <ele>-1.3</ele>
        <time>2016-05-27T11:07:12Z</time>
      </trkpt>
      <trkpt lat="43.05563" lon="5.90852">
        <ele>-0.34</ele>
        <time>2016-05-27T11:07:29Z</time>
      </trkpt>
      <trkpt lat="43.05576" lon="5.9091">
        <ele>-1.3</ele>
        <time>2016-05-27T11:07:45Z</time>
      </trkpt>
      <trkpt lat="43.05586" lon="5.90957">
        <ele>-2.75</ele>
        <time>2016-05-27T11:07:59Z</time>
      </trkpt>
      <trkpt lat="43.05597" lon="5.90999">
        <ele>-4.19</ele>
        <time>2016-05-27T11:08:12Z</time>
      </trkpt>
      <trkpt lat="43.0561" lon="5.91048">
        <ele>-5.63</ele>
        <time>2016-05-27T11:08:26Z</time>
      </trkpt>
      <trkpt lat="43.05619" lon="5.91099">
        <ele>-6.59</ele>
        <time>2016-05-27T11:08:40Z</time>
      </trkpt>
      <trkpt lat="43.05631" lon="5.91175">
        <ele>-8.03</ele>
        <time>2016-05-27T11:09:01Z</time>
      </trkpt>
      <trkpt lat="43.05642" lon="5.91245">
        <ele>-8.51</ele>
        <time>2016-05-27T11:09:20Z</time>
      </trkpt>
      <trkpt lat="43.05656" lon="5.91309">
        <ele>-7.55</ele>
        <time>2016-05-27T11:09:38Z</time>
      </trkpt>
      <trkpt lat="43.05666" lon="5.91363">
        <ele>-6.59</ele>
        <time>2016-05-27T11:09:53Z</time>
      </trkpt>
      <trkpt lat="43.05679" lon="5.91435">
        <ele>-7.07</ele>
        <time>2016-05-27T11:10:13Z</time>
      </trkpt>
      <trkpt lat="43.0569" lon="5.91496">
        <ele>-6.59</ele>
        <time>2016-05-27T11:10:30Z</time>
      </trkpt>
      <trkpt lat="43.05699" lon="5.91547">
        <ele>-5.63</ele>
        <time>2016-05-27T11:10:44Z</time>
      </trkpt>
      <trkpt lat="43.0571" lon="5.916">
        <ele>-6.11</ele>
        <time>2016-05-27T11:10:59Z</time>
      </trkpt>
      <trkpt lat="43.05719" lon="5.91659">
        <ele>-7.07</ele>
        <time>2016-05-27T11:11:15Z</time>
      </trkpt>
      <trkpt lat="43.05729" lon="5.91727">
        <ele>-7.07</ele>
        <time>2016-05-27T11:11:33Z</time>
      </trkpt>
      <trkpt lat="43.05739" lon="5.91776">
        <ele>-5.63</ele>
        <time>2016-05-27T11:11:47Z</time>
      </trkpt>
      <trkpt lat="43.05745" lon="5.91831">
        <ele>-5.15</ele>
        <time>2016-05-27T11:12:02Z</time>
      </trkpt>
      <trkpt lat="43.05754" lon="5.91882">
        <ele>-4.67</ele>
        <time>2016-05-27T11:12:16Z</time>
      </trkpt>
      <trkpt lat="43.05763" lon="5.91946">
        <ele>-4.19</ele>
        <time>2016-05-27T11:12:33Z</time>
      </trkpt>
      <trkpt lat="43.05775" lon="5.92005">
        <ele>-4.19</ele>
        <time>2016-05-27T11:12:49Z</time>
      </trkpt>
      <trkpt lat="43.05783" lon="5.92054">
        <ele>-3.71</ele>
        <time>2016-05-27T11:13:03Z</time>
      </trkpt>
      <trkpt lat="43.05791" lon="5.921">
        <ele>-2.75</ele>
        <time>2016-05-27T11:13:15Z</time>
      </trkpt>
      <trkpt lat="43.05798" lon="5.92142">
        <ele>-3.23</ele>
        <time>2016-05-27T11:13:27Z</time>
      </trkpt>
      <trkpt lat="43.05802" lon="5.92178">
        <ele>-3.23</ele>
        <time>2016-05-27T11:13:37Z</time>
      </trkpt>
      <trkpt lat="43.05812" lon="5.92227">
        <ele>-3.71</ele>
        <time>2016-05-27T11:13:51Z</time>
      </trkpt>
      <trkpt lat="43.05821" lon="5.92283">
        <ele>-3.71</ele>
        <time>2016-05-27T11:14:07Z</time>
      </trkpt>
      <trkpt lat="43.0583" lon="5.92337">
        <ele>-2.75</ele>
        <time>2016-05-27T11:14:22Z</time>
      </trkpt>
      <trkpt lat="43.05838" lon="5.92388">
        <ele>-2.27</ele>
        <time>2016-05-27T11:14:36Z</time>
      </trkpt>
      <trkpt lat="43.05848" lon="5.92449">
        <ele>-2.27</ele>
        <time>2016-05-27T11:14:52Z</time>
      </trkpt>
      <trkpt lat="43.0586" lon="5.92512">
        <ele>-1.79</ele>
        <time>2016-05-27T11:15:09Z</time>
      </trkpt>
      <trkpt lat="43.05871" lon="5.9257">
        <ele>-3.23</ele>
        <time>2016-05-27T11:15:25Z</time>
      </trkpt>
      <trkpt lat="43.05881" lon="5.92633">
        <ele>-4.19</ele>
        <time>2016-05-27T11:15:42Z</time>
      </trkpt>
      <trkpt lat="43.05887" lon="5.92679">
        <ele>-4.19</ele>
        <time>2016-05-27T11:15:54Z</time>
      </trkpt>
      <trkpt lat="43.05897" lon="5.92728">
        <ele>-3.71</ele>
        <time>2016-05-27T11:16:07Z</time>
      </trkpt>
      <trkpt lat="43.05905" lon="5.92786">
        <ele>-3.71</ele>
        <time>2016-05-27T11:16:22Z</time>
      </trkpt>
      <trkpt lat="43.05913" lon="5.92841">
        <ele>-3.71</ele>
        <time>2016-05-27T11:16:37Z</time>
      </trkpt>
      <trkpt lat="43.05922" lon="5.92901">
        <ele>-4.67</ele>
        <time>2016-05-27T11:16:53Z</time>
      </trkpt>
      <trkpt lat="43.05923" lon="5.92908">
        <ele>-4.19</ele>
        <time>2016-05-27T11:16:55Z</time>
      </trkpt>
      <trkpt lat="43.05928" lon="5.92957">
        <ele>-4.67</ele>
        <time>2016-05-27T11:17:08Z</time>
      </trkpt>
      <trkpt lat="43.05936" lon="5.93007">
        <ele>-4.67</ele>
        <time>2016-05-27T11:17:22Z</time>
      </trkpt>
      <trkpt lat="43.05944" lon="5.93059">
        <ele>-3.71</ele>
        <time>2016-05-27T11:17:36Z</time>
      </trkpt>
      <trkpt lat="43.05949" lon="5.93103">
        <ele>-3.23</ele>
        <time>2016-05-27T11:17:48Z</time>
      </trkpt>
      <trkpt lat="43.0596" lon="5.93156">
        <ele>-2.27</ele>
        <time>2016-05-27T11:18:03Z</time>
      </trkpt>
      <trkpt lat="43.05969" lon="5.93207">
        <ele>-3.71</ele>
        <time>2016-05-27T11:18:17Z</time>
      </trkpt>
      <trkpt lat="43.05977" lon="5.93255">
        <ele>-4.67</ele>
        <time>2016-05-27T11:18:30Z</time>
      </trkpt>
      <trkpt lat="43.05984" lon="5.93307">
        <ele>-5.15</ele>
        <time>2016-05-27T11:18:44Z</time>
      </trkpt>
      <trkpt lat="43.05994" lon="5.93375">
        <ele>-4.67</ele>
        <time>2016-05-27T11:19:02Z</time>
      </trkpt>
      <trkpt lat="43.06003" lon="5.93423">
        <ele>-4.19</ele>
        <time>2016-05-27T11:19:16Z</time>
      </trkpt>
      <trkpt lat="43.06009" lon="5.93473">
        <ele>-4.19</ele>
        <time>2016-05-27T11:19:30Z</time>
      </trkpt>
      <trkpt lat="43.06019" lon="5.93521">
        <ele>-3.23</ele>
        <time>2016-05-27T11:19:44Z</time>
      </trkpt>
      <trkpt lat="43.06027" lon="5.93569">
        <ele>-2.75</ele>
        <time>2016-05-27T11:19:58Z</time>
      </trkpt>
      <trkpt lat="43.06035" lon="5.93629">
        <ele>-3.23</ele>
        <time>2016-05-27T11:20:14Z</time>
      </trkpt>
      <trkpt lat="43.06041" lon="5.93674">
        <ele>-3.23</ele>
        <time>2016-05-27T11:20:26Z</time>
      </trkpt>
      <trkpt lat="43.0605" lon="5.93731">
        <ele>-3.71</ele>
        <time>2016-05-27T11:20:41Z</time>
      </trkpt>
      <trkpt lat="43.06058" lon="5.93779">
        <ele>-3.23</ele>
        <time>2016-05-27T11:20:54Z</time>
      </trkpt>
      <trkpt lat="43.06066" lon="5.93824">
        <ele>-2.75</ele>
        <time>2016-05-27T11:21:06Z</time>
      </trkpt>
      <trkpt lat="43.06073" lon="5.93863">
        <ele>-1.79</ele>
        <time>2016-05-27T11:21:18Z</time>
      </trkpt>
      <trkpt lat="43.06082" lon="5.93913">
        <ele>-1.79</ele>
        <time>2016-05-27T11:21:32Z</time>
      </trkpt>
      <trkpt lat="43.06087" lon="5.93961">
        <ele>-2.75</ele>
        <time>2016-05-27T11:21:45Z</time>
      </trkpt>
      <trkpt lat="43.06094" lon="5.94006">
        <ele>-2.75</ele>
        <time>2016-05-27T11:21:57Z</time>
      </trkpt>
      <trkpt lat="43.061" lon="5.9406">
        <ele>-2.75</ele>
        <time>2016-05-27T11:22:12Z</time>
      </trkpt>
      <trkpt lat="43.06107" lon="5.94108">
        <ele>-5.15</ele>
        <time>2016-05-27T11:22:26Z</time>
      </trkpt>
      <trkpt lat="43.06114" lon="5.94161">
        <ele>-4.19</ele>
        <time>2016-05-27T11:22:42Z</time>
      </trkpt>
      <trkpt lat="43.0612" lon="5.94198">
        <ele>-4.67</ele>
        <time>2016-05-27T11:22:53Z</time>
      </trkpt>
      <trkpt lat="43.06125" lon="5.94238">
        <ele>-5.15</ele>
        <time>2016-05-27T11:23:04Z</time>
      </trkpt>
      <trkpt lat="43.06132" lon="5.94277">
        <ele>-5.15</ele>
        <time>2016-05-27T11:23:15Z</time>
      </trkpt>
      <trkpt lat="43.06137" lon="5.94318">
        <ele>-3.71</ele>
        <time>2016-05-27T11:23:26Z</time>
      </trkpt>
      <trkpt lat="43.06143" lon="5.94365">
        <ele>-3.71</ele>
        <time>2016-05-27T11:23:39Z</time>
      </trkpt>
      <trkpt lat="43.06164" lon="5.94405">
        <ele>-4.67</ele>
        <time>2016-05-27T11:23:52Z</time>
      </trkpt>
      <trkpt lat="43.06175" lon="5.94424">
        <ele>-6.11</ele>
        <time>2016-05-27T11:23:58Z</time>
      </trkpt>
      <trkpt lat="43.06182" lon="5.94436">
        <ele>-6.11</ele>
        <time>2016-05-27T11:24:02Z</time>
      </trkpt>
      <trkpt lat="43.06199" lon="5.94469">
        <ele>-5.15</ele>
        <time>2016-05-27T11:24:12Z</time>
      </trkpt>
      <trkpt lat="43.06223" lon="5.94512">
        <ele>-5.63</ele>
        <time>2016-05-27T11:24:26Z</time>
      </trkpt>
      <trkpt lat="43.06238" lon="5.94548">
        <ele>-6.11</ele>
        <time>2016-05-27T11:24:37Z</time>
      </trkpt>
      <trkpt lat="43.06257" lon="5.94584">
        <ele>-6.11</ele>
        <time>2016-05-27T11:24:48Z</time>
      </trkpt>
      <trkpt lat="43.06273" lon="5.94622">
        <ele>-8.03</ele>
        <time>2016-05-27T11:24:59Z</time>
      </trkpt>
      <trkpt lat="43.06296" lon="5.94666">
        <ele>-7.55</ele>
        <time>2016-05-27T11:25:13Z</time>
      </trkpt>
      <trkpt lat="43.06313" lon="5.94698">
        <ele>-7.55</ele>
        <time>2016-05-27T11:25:23Z</time>
      </trkpt>
      <trkpt lat="43.06321" lon="5.9471">
        <ele>-8.03</ele>
        <time>2016-05-27T11:25:27Z</time>
      </trkpt>
      <trkpt lat="43.06348" lon="5.94747">
        <ele>-6.59</ele>
        <time>2016-05-27T11:25:40Z</time>
      </trkpt>
      <trkpt lat="43.06371" lon="5.94779">
        <ele>-6.11</ele>
        <time>2016-05-27T11:25:51Z</time>
      </trkpt>
      <trkpt lat="43.06395" lon="5.9481">
        <ele>-5.63</ele>
        <time>2016-05-27T11:26:02Z</time>
      </trkpt>
      <trkpt lat="43.06415" lon="5.94845">
        <ele>-6.11</ele>
        <time>2016-05-27T11:26:13Z</time>
      </trkpt>
      <trkpt lat="43.06437" lon="5.94884">
        <ele>-7.07</ele>
        <time>2016-05-27T11:26:24Z</time>
      </trkpt>
      <trkpt lat="43.06462" lon="5.94923">
        <ele>-6.11</ele>
        <time>2016-05-27T11:26:37Z</time>
      </trkpt>
      <trkpt lat="43.06488" lon="5.94956">
        <ele>-5.63</ele>
        <time>2016-05-27T11:26:49Z</time>
      </trkpt>
      <trkpt lat="43.06513" lon="5.9499">
        <ele>-5.63</ele>
        <time>2016-05-27T11:27:01Z</time>
      </trkpt>
      <trkpt lat="43.06535" lon="5.95018">
        <ele>-4.19</ele>
        <time>2016-05-27T11:27:11Z</time>
      </trkpt>
      <trkpt lat="43.06557" lon="5.95052">
        <ele>-4.67</ele>
        <time>2016-05-27T11:27:22Z</time>
      </trkpt>
      <trkpt lat="43.06576" lon="5.95083">
        <ele>-4.67</ele>
        <time>2016-05-27T11:27:32Z</time>
      </trkpt>
      <trkpt lat="43.06599" lon="5.95117">
        <ele>-4.19</ele>
        <time>2016-05-27T11:27:43Z</time>
      </trkpt>
      <trkpt lat="43.06622" lon="5.95156">
        <ele>-4.19</ele>
        <time>2016-05-27T11:27:55Z</time>
      </trkpt>
      <trkpt lat="43.06639" lon="5.95185">
        <ele>-5.15</ele>
        <time>2016-05-27T11:28:04Z</time>
      </trkpt>
      <trkpt lat="43.06663" lon="5.95219">
        <ele>-5.15</ele>
        <time>2016-05-27T11:28:15Z</time>
      </trkpt>
      <trkpt lat="43.06688" lon="5.95257">
        <ele>-4.67</ele>
        <time>2016-05-27T11:28:27Z</time>
      </trkpt>
      <trkpt lat="43.06711" lon="5.95292">
        <ele>-5.15</ele>
        <time>2016-05-27T11:28:38Z</time>
      </trkpt>
      <trkpt lat="43.06732" lon="5.95323">
        <ele>-6.11</ele>
        <time>2016-05-27T11:28:48Z</time>
      </trkpt>
      <trkpt lat="43.06762" lon="5.95367">
        <ele>-6.11</ele>
        <time>2016-05-27T11:29:01Z</time>
      </trkpt>
      <trkpt lat="43.06787" lon="5.95401">
        <ele>-6.59</ele>
        <time>2016-05-27T11:29:12Z</time>
      </trkpt>
      <trkpt lat="43.06814" lon="5.95437">
        <ele>-6.11</ele>
        <time>2016-05-27T11:29:24Z</time>
      </trkpt>
      <trkpt lat="43.0684" lon="5.95475">
        <ele>-4.19</ele>
        <time>2016-05-27T11:29:37Z</time>
      </trkpt>
      <trkpt lat="43.06863" lon="5.95522">
        <ele>-4.19</ele>
        <time>2016-05-27T11:29:51Z</time>
      </trkpt>
      <trkpt lat="43.069" lon="5.95557">
        <ele>-3.71</ele>
        <time>2016-05-27T11:30:05Z</time>
      </trkpt>
      <trkpt lat="43.06942" lon="5.95583">
        <ele>-3.71</ele>
        <time>2016-05-27T11:30:19Z</time>
      </trkpt>
      <trkpt lat="43.06984" lon="5.95613">
        <ele>-3.23</ele>
        <time>2016-05-27T11:30:33Z</time>
      </trkpt>
      <trkpt lat="43.07024" lon="5.95645">
        <ele>-4.67</ele>
        <time>2016-05-27T11:30:47Z</time>
      </trkpt>
      <trkpt lat="43.07067" lon="5.95673">
        <ele>-5.63</ele>
        <time>2016-05-27T11:31:01Z</time>
      </trkpt>
      <trkpt lat="43.07119" lon="5.957">
        <ele>-4.67</ele>
        <time>2016-05-27T11:31:17Z</time>
      </trkpt>
      <trkpt lat="43.07167" lon="5.95728">
        <ele>-5.63</ele>
        <time>2016-05-27T11:31:33Z</time>
      </trkpt>
      <trkpt lat="43.07213" lon="5.9575">
        <ele>-5.15</ele>
        <time>2016-05-27T11:31:47Z</time>
      </trkpt>
      <trkpt lat="43.07257" lon="5.95759">
        <ele>-4.19</ele>
        <time>2016-05-27T11:32:00Z</time>
      </trkpt>
      <trkpt lat="43.07298" lon="5.95767">
        <ele>-1.79</ele>
        <time>2016-05-27T11:32:12Z</time>
      </trkpt>
      <trkpt lat="43.07332" lon="5.95774">
        <ele>-1.79</ele>
        <time>2016-05-27T11:32:22Z</time>
      </trkpt>
      <trkpt lat="43.07346" lon="5.95776">
        <ele>-1.79</ele>
        <time>2016-05-27T11:32:26Z</time>
      </trkpt>
      <trkpt lat="43.07361" lon="5.95782">
        <ele>-2.27</ele>
        <time>2016-05-27T11:32:30Z</time>
      </trkpt>
      <trkpt lat="43.07397" lon="5.95805">
        <ele>-2.27</ele>
        <time>2016-05-27T11:32:42Z</time>
      </trkpt>
      <trkpt lat="43.07435" lon="5.95823">
        <ele>-1.3</ele>
        <time>2016-05-27T11:32:54Z</time>
      </trkpt>
      <trkpt lat="43.07474" lon="5.95816">
        <ele>-0.82</ele>
        <time>2016-05-27T11:33:05Z</time>
      </trkpt>
      <trkpt lat="43.07527" lon="5.95791">
        <ele>-0.82</ele>
        <time>2016-05-27T11:33:21Z</time>
      </trkpt>
      <trkpt lat="43.0757" lon="5.95779">
        <ele>-0.82</ele>
        <time>2016-05-27T11:33:33Z</time>
      </trkpt>
      <trkpt lat="43.07609" lon="5.95754">
        <ele>-0.82</ele>
        <time>2016-05-27T11:33:45Z</time>
      </trkpt>
      <trkpt lat="43.07654" lon="5.9572">
        <ele>-0.34</ele>
        <time>2016-05-27T11:33:59Z</time>
      </trkpt>
      <trkpt lat="43.07694" lon="5.95693">
        <ele>0.14</ele>
        <time>2016-05-27T11:34:11Z</time>
      </trkpt>
      <trkpt lat="43.07733" lon="5.95667">
        <ele>-0.34</ele>
        <time>2016-05-27T11:34:23Z</time>
      </trkpt>
      <trkpt lat="43.07784" lon="5.95636">
        <ele>-0.82</ele>
        <time>2016-05-27T11:34:38Z</time>
      </trkpt>
      <trkpt lat="43.07825" lon="5.95603">
        <ele>-0.82</ele>
        <time>2016-05-27T11:34:51Z</time>
      </trkpt>
      <trkpt lat="43.07872" lon="5.95559">
        <ele>-1.3</ele>
        <time>2016-05-27T11:35:06Z</time>
      </trkpt>
      <trkpt lat="43.07926" lon="5.95499">
        <ele>-0.82</ele>
        <time>2016-05-27T11:35:25Z</time>
      </trkpt>
      <trkpt lat="43.0794" lon="5.95479">
        <ele>-0.82</ele>
        <time>2016-05-27T11:35:31Z</time>
      </trkpt>
      <trkpt lat="43.07979" lon="5.95434">
        <ele>-0.34</ele>
        <time>2016-05-27T11:35:45Z</time>
      </trkpt>
      <trkpt lat="43.08019" lon="5.95381">
        <ele>0.14</ele>
        <time>2016-05-27T11:36:00Z</time>
      </trkpt>
      <trkpt lat="43.08065" lon="5.95315">
        <ele>-0.34</ele>
        <time>2016-05-27T11:36:18Z</time>
      </trkpt>
      <trkpt lat="43.08107" lon="5.95255">
        <ele>-0.34</ele>
        <time>2016-05-27T11:36:35Z</time>
      </trkpt>
      <trkpt lat="43.08143" lon="5.95204">
        <ele>0.62</ele>
        <time>2016-05-27T11:36:49Z</time>
      </trkpt>
      <trkpt lat="43.08183" lon="5.95137">
        <ele>1.1</ele>
        <time>2016-05-27T11:37:06Z</time>
      </trkpt>
      <trkpt lat="43.08223" lon="5.95078">
        <ele>1.1</ele>
        <time>2016-05-27T11:37:22Z</time>
      </trkpt>
      <trkpt lat="43.08259" lon="5.95007">
        <ele>-0.34</ele>
        <time>2016-05-27T11:37:39Z</time>
      </trkpt>
      <trkpt lat="43.08292" lon="5.94931">
        <ele>0.14</ele>
        <time>2016-05-27T11:37:57Z</time>
      </trkpt>
      <trkpt lat="43.0833" lon="5.94851">
        <ele>0.14</ele>
        <time>2016-05-27T11:38:15Z</time>
      </trkpt>
      <trkpt lat="43.08364" lon="5.94786">
        <ele>0.14</ele>
        <time>2016-05-27T11:38:31Z</time>
      </trkpt>
      <trkpt lat="43.08396" lon="5.9472">
        <ele>0.14</ele>
        <time>2016-05-27T11:38:47Z</time>
      </trkpt>
      <trkpt lat="43.08425" lon="5.94645">
        <ele>-0.34</ele>
        <time>2016-05-27T11:39:04Z</time>
      </trkpt>
      <trkpt lat="43.08455" lon="5.94564">
        <ele>-0.82</ele>
        <time>2016-05-27T11:39:22Z</time>
      </trkpt>
      <trkpt lat="43.08483" lon="5.9447">
        <ele>-0.82</ele>
        <time>2016-05-27T11:39:42Z</time>
      </trkpt>
      <trkpt lat="43.08508" lon="5.94399">
        <ele>-0.82</ele>
        <time>2016-05-27T11:39:58Z</time>
      </trkpt>
      <trkpt lat="43.08543" lon="5.94337">
        <ele>0.14</ele>
        <time>2016-05-27T11:40:14Z</time>
      </trkpt>
      <trkpt lat="43.08552" lon="5.94321">
        <ele>-0.34</ele>
        <time>2016-05-27T11:40:18Z</time>
      </trkpt>
      <trkpt lat="43.08586" lon="5.94274">
        <ele>-0.34</ele>
        <time>2016-05-27T11:40:32Z</time>
      </trkpt>
      <trkpt lat="43.08613" lon="5.94225">
        <ele>0.14</ele>
        <time>2016-05-27T11:40:47Z</time>
      </trkpt>
      <trkpt lat="43.08636" lon="5.94187">
        <ele>0.62</ele>
        <time>2016-05-27T11:40:59Z</time>
      </trkpt>
      <trkpt lat="43.08649" lon="5.94127">
        <ele>-0.82</ele>
        <time>2016-05-27T11:41:15Z</time>
      </trkpt>
      <trkpt lat="43.08662" lon="5.94058">
        <ele>-0.34</ele>
        <time>2016-05-27T11:41:33Z</time>
      </trkpt>
      <trkpt lat="43.08673" lon="5.94003">
        <ele>-0.82</ele>
        <time>2016-05-27T11:41:48Z</time>
      </trkpt>
      <trkpt lat="43.08686" lon="5.93942">
        <ele>-0.82</ele>
        <time>2016-05-27T11:42:04Z</time>
      </trkpt>
      <trkpt lat="43.08693" lon="5.93875">
        <ele>-0.34</ele>
        <time>2016-05-27T11:42:21Z</time>
      </trkpt>
      <trkpt lat="43.08701" lon="5.93791">
        <ele>-0.34</ele>
        <time>2016-05-27T11:42:42Z</time>
      </trkpt>
      <trkpt lat="43.08708" lon="5.93719">
        <ele>-0.34</ele>
        <time>2016-05-27T11:43:00Z</time>
      </trkpt>
      <trkpt lat="43.08716" lon="5.93653">
        <ele>-0.82</ele>
        <time>2016-05-27T11:43:16Z</time>
      </trkpt>
      <trkpt lat="43.08721" lon="5.9359">
        <ele>-0.82</ele>
        <time>2016-05-27T11:43:31Z</time>
      </trkpt>
      <trkpt lat="43.08726" lon="5.93523">
        <ele>-0.34</ele>
        <time>2016-05-27T11:43:47Z</time>
      </trkpt>
      <trkpt lat="43.08734" lon="5.93447">
        <ele>-0.82</ele>
        <time>2016-05-27T11:44:05Z</time>
      </trkpt>
      <trkpt lat="43.08732" lon="5.93376">
        <ele>-1.3</ele>
        <time>2016-05-27T11:44:22Z</time>
      </trkpt>
      <trkpt lat="43.08742" lon="5.93293">
        <ele>-1.3</ele>
        <time>2016-05-27T11:44:41Z</time>
      </trkpt>
      <trkpt lat="43.08745" lon="5.93208">
        <ele>-1.3</ele>
        <time>2016-05-27T11:45:01Z</time>
      </trkpt>
      <trkpt lat="43.08752" lon="5.93137">
        <ele>-1.3</ele>
        <time>2016-05-27T11:45:18Z</time>
      </trkpt>
      <trkpt lat="43.08759" lon="5.93055">
        <ele>-0.82</ele>
        <time>2016-05-27T11:45:37Z</time>
      </trkpt>
      <trkpt lat="43.08774" lon="5.92946">
        <ele>-0.34</ele>
        <time>2016-05-27T11:46:02Z</time>
      </trkpt>
      <trkpt lat="43.08778" lon="5.92854">
        <ele>-0.82</ele>
        <time>2016-05-27T11:46:23Z</time>
      </trkpt>
      <trkpt lat="43.08775" lon="5.92753">
        <ele>-0.82</ele>
        <time>2016-05-27T11:46:46Z</time>
      </trkpt>
      <trkpt lat="43.08774" lon="5.92704">
        <ele>-3.23</ele>
        <time>2016-05-27T11:46:57Z</time>
      </trkpt>
      <trkpt lat="43.08771" lon="5.92616">
        <ele>-2.27</ele>
        <time>2016-05-27T11:47:17Z</time>
      </trkpt>
      <trkpt lat="43.08769" lon="5.92532">
        <ele>-1.3</ele>
        <time>2016-05-27T11:47:36Z</time>
      </trkpt>
      <trkpt lat="43.08774" lon="5.92421">
        <ele>-1.3</ele>
        <time>2016-05-27T11:48:01Z</time>
      </trkpt>
      <trkpt lat="43.0878" lon="5.9232">
        <ele>-1.79</ele>
        <time>2016-05-27T11:48:25Z</time>
      </trkpt>
      <trkpt lat="43.08788" lon="5.92226">
        <ele>-2.27</ele>
        <time>2016-05-27T11:48:47Z</time>
      </trkpt>
      <trkpt lat="43.08801" lon="5.92122">
        <ele>-1.3</ele>
        <time>2016-05-27T11:49:12Z</time>
      </trkpt>
      <trkpt lat="43.0881" lon="5.92014">
        <ele>-2.75</ele>
        <time>2016-05-27T11:49:38Z</time>
      </trkpt>
      <trkpt lat="43.08809" lon="5.91917">
        <ele>-3.23</ele>
        <time>2016-05-27T11:50:01Z</time>
      </trkpt>
      <trkpt lat="43.088" lon="5.91812">
        <ele>-0.34</ele>
        <time>2016-05-27T11:50:27Z</time>
      </trkpt>
      <trkpt lat="43.08789" lon="5.91703">
        <ele>-0.34</ele>
        <time>2016-05-27T11:50:55Z</time>
      </trkpt>
      <trkpt lat="43.08788" lon="5.91601">
        <ele>-3.23</ele>
        <time>2016-05-27T11:51:22Z</time>
      </trkpt>
      <trkpt lat="43.08789" lon="5.91498">
        <ele>-4.67</ele>
        <time>2016-05-27T11:51:50Z</time>
      </trkpt>
      <trkpt lat="43.08786" lon="5.91398">
        <ele>-1.79</ele>
        <time>2016-05-27T11:52:18Z</time>
      </trkpt>
      <trkpt lat="43.08767" lon="5.91323">
        <ele>-0.34</ele>
        <time>2016-05-27T11:52:41Z</time>
      </trkpt>
      <trkpt lat="43.08746" lon="5.91245">
        <ele>0.62</ele>
        <time>2016-05-27T11:53:06Z</time>
      </trkpt>
      <trkpt lat="43.08718" lon="5.9116">
        <ele>0.14</ele>
        <time>2016-05-27T11:53:34Z</time>
      </trkpt>
      <trkpt lat="43.08697" lon="5.91098">
        <ele>0.62</ele>
        <time>2016-05-27T11:53:55Z</time>
      </trkpt>
      <trkpt lat="43.08671" lon="5.91047">
        <ele>-0.34</ele>
        <time>2016-05-27T11:54:15Z</time>
      </trkpt>
      <trkpt lat="43.08635" lon="5.91015">
        <ele>0.62</ele>
        <time>2016-05-27T11:54:35Z</time>
      </trkpt>
      <trkpt lat="43.08607" lon="5.90987">
        <ele>-0.34</ele>
        <time>2016-05-27T11:54:51Z</time>
      </trkpt>
      <trkpt lat="43.08572" lon="5.90962">
        <ele>0.62</ele>
        <time>2016-05-27T11:55:10Z</time>
      </trkpt>
      <trkpt lat="43.08527" lon="5.9094">
        <ele>0.14</ele>
        <time>2016-05-27T11:55:32Z</time>
      </trkpt>
      <trkpt lat="43.08482" lon="5.90915">
        <ele>-0.82</ele>
        <time>2016-05-27T11:55:55Z</time>
      </trkpt>
      <trkpt lat="43.08427" lon="5.90892">
        <ele>-0.34</ele>
        <time>2016-05-27T11:56:21Z</time>
      </trkpt>
      <trkpt lat="43.08377" lon="5.90878">
        <ele>-0.82</ele>
        <time>2016-05-27T11:56:46Z</time>
      </trkpt>
      <trkpt lat="43.08339" lon="5.90867">
        <ele>-1.3</ele>
        <time>2016-05-27T11:57:11Z</time>
      </trkpt>
      <trkpt lat="43.0832" lon="5.90852">
        <ele>-1.79</ele>
        <time>2016-05-27T11:57:28Z</time>
      </trkpt>
      <trkpt lat="43.08285" lon="5.90822">
        <ele>-0.82</ele>
        <time>2016-05-27T11:57:59Z</time>
      </trkpt>
      <trkpt lat="43.08265" lon="5.90786">
        <ele>-0.34</ele>
        <time>2016-05-27T11:58:25Z</time>
      </trkpt>
      <trkpt lat="43.08242" lon="5.90735">
        <ele>0.14</ele>
        <time>2016-05-27T11:58:58Z</time>
      </trkpt>
      <trkpt lat="43.08222" lon="5.90687">
        <ele>1.1</ele>
        <time>2016-05-27T11:59:26Z</time>
      </trkpt>
      <trkpt lat="43.08202" lon="5.90648">
        <ele>0.62</ele>
        <time>2016-05-27T11:59:51Z</time>
      </trkpt>
      <trkpt lat="43.08182" lon="5.90646">
        <ele>-0.82</ele>
        <time>2016-05-27T12:00:10Z</time>
      </trkpt>
      <trkpt lat="43.08179" lon="5.90649">
        <ele>-0.82</ele>
        <time>2016-05-27T12:00:13Z</time>
      </trkpt>
      <trkpt lat="43.08182" lon="5.90665">
        <ele>-1.3</ele>
        <time>2016-05-27T12:00:28Z</time>
      </trkpt>
      <trkpt lat="43.08201" lon="5.90691">
        <ele>0.14</ele>
        <time>2016-05-27T12:00:54Z</time>
      </trkpt>
      <trkpt lat="43.08219" lon="5.90721">
        <ele>-0.82</ele>
        <time>2016-05-27T12:01:19Z</time>
      </trkpt>
      <trkpt lat="43.08243" lon="5.90764">
        <ele>-2.27</ele>
        <time>2016-05-27T12:01:53Z</time>
      </trkpt>
      <trkpt lat="43.08259" lon="5.9079">
        <ele>-1.3</ele>
        <time>2016-05-27T12:02:14Z</time>
      </trkpt>
      <trkpt lat="43.08282" lon="5.90827">
        <ele>-1.79</ele>
        <time>2016-05-27T12:02:44Z</time>
      </trkpt>
      <trkpt lat="43.08302" lon="5.90858">
        <ele>-1.3</ele>
        <time>2016-05-27T12:03:08Z</time>
      </trkpt>
      <trkpt lat="43.08325" lon="5.90888">
        <ele>-0.82</ele>
        <time>2016-05-27T12:03:35Z</time>
      </trkpt>
      <trkpt lat="43.08347" lon="5.90922">
        <ele>-0.82</ele>
        <time>2016-05-27T12:04:05Z</time>
      </trkpt>
      <trkpt lat="43.08365" lon="5.90957">
        <ele>-0.82</ele>
        <time>2016-05-27T12:04:34Z</time>
      </trkpt>
      <trkpt lat="43.08378" lon="5.90985">
        <ele>-1.3</ele>
        <time>2016-05-27T12:04:56Z</time>
      </trkpt>
      <trkpt lat="43.08389" lon="5.91011">
        <ele>-1.3</ele>
        <time>2016-05-27T12:05:15Z</time>
      </trkpt>
      <trkpt lat="43.08404" lon="5.91038">
        <ele>-1.79</ele>
        <time>2016-05-27T12:05:39Z</time>
      </trkpt>
      <trkpt lat="43.08419" lon="5.91067">
        <ele>-0.82</ele>
        <time>2016-05-27T12:06:04Z</time>
      </trkpt>
      <trkpt lat="43.08447" lon="5.91074">
        <ele>-0.34</ele>
        <time>2016-05-27T12:06:27Z</time>
      </trkpt>
      <trkpt lat="43.08473" lon="5.91067">
        <ele>-1.3</ele>
        <time>2016-05-27T12:06:48Z</time>
      </trkpt>
      <trkpt lat="43.08505" lon="5.9106">
        <ele>-1.79</ele>
        <time>2016-05-27T12:07:13Z</time>
      </trkpt>
      <trkpt lat="43.0854" lon="5.91055">
        <ele>-4.19</ele>
        <time>2016-05-27T12:07:39Z</time>
      </trkpt>
      <trkpt lat="43.08573" lon="5.91048">
        <ele>-3.71</ele>
        <time>2016-05-27T12:08:01Z</time>
      </trkpt>
      <trkpt lat="43.08606" lon="5.91033">
        <ele>-2.27</ele>
        <time>2016-05-27T12:08:22Z</time>
      </trkpt>
      <trkpt lat="43.08642" lon="5.91023">
        <ele>-1.3</ele>
        <time>2016-05-27T12:08:44Z</time>
      </trkpt>
      <trkpt lat="43.08674" lon="5.91005">
        <ele>-1.3</ele>
        <time>2016-05-27T12:09:04Z</time>
      </trkpt>
      <trkpt lat="43.08709" lon="5.91003">
        <ele>-2.27</ele>
        <time>2016-05-27T12:09:25Z</time>
      </trkpt>
      <trkpt lat="43.08739" lon="5.91009">
        <ele>-3.71</ele>
        <time>2016-05-27T12:09:45Z</time>
      </trkpt>
      <trkpt lat="43.08762" lon="5.91016">
        <ele>-2.75</ele>
        <time>2016-05-27T12:10:02Z</time>
      </trkpt>
      <trkpt lat="43.08779" lon="5.91034">
        <ele>-1.79</ele>
        <time>2016-05-27T12:10:20Z</time>
      </trkpt>
      <trkpt lat="43.08788" lon="5.91064">
        <ele>-2.27</ele>
        <time>2016-05-27T12:10:46Z</time>
      </trkpt>
      <trkpt lat="43.0879" lon="5.91089">
        <ele>-2.75</ele>
        <time>2016-05-27T12:11:11Z</time>
      </trkpt>
      <trkpt lat="43.08788" lon="5.91115">
        <ele>-1.79</ele>
        <time>2016-05-27T12:11:39Z</time>
      </trkpt>
      <trkpt lat="43.0878" lon="5.91138">
        <ele>0.14</ele>
        <time>2016-05-27T12:12:07Z</time>
      </trkpt>
      <trkpt lat="43.0878" lon="5.91151">
        <ele>0.62</ele>
        <time>2016-05-27T12:12:33Z</time>
      </trkpt>
      <trkpt lat="43.08774" lon="5.91148">
        <ele>-0.82</ele>
        <time>2016-05-27T12:12:53Z</time>
      </trkpt>
      <trkpt lat="43.08768" lon="5.91138">
        <ele>-0.82</ele>
        <time>2016-05-27T12:13:04Z</time>
      </trkpt>
      <trkpt lat="43.08748" lon="5.91116">
        <ele>-2.27</ele>
        <time>2016-05-27T12:13:28Z</time>
      </trkpt>
      <trkpt lat="43.08724" lon="5.91091">
        <ele>-2.27</ele>
        <time>2016-05-27T12:13:52Z</time>
      </trkpt>
      <trkpt lat="43.087" lon="5.91061">
        <ele>-1.3</ele>
        <time>2016-05-27T12:14:17Z</time>
      </trkpt>
      <trkpt lat="43.08677" lon="5.91022">
        <ele>-0.82</ele>
        <time>2016-05-27T12:14:43Z</time>
      </trkpt>
      <trkpt lat="43.08655" lon="5.90988">
        <ele>-1.79</ele>
        <time>2016-05-27T12:15:06Z</time>
      </trkpt>
      <trkpt lat="43.0863" lon="5.9095">
        <ele>-1.79</ele>
        <time>2016-05-27T12:15:33Z</time>
      </trkpt>
      <trkpt lat="43.086" lon="5.90918">
        <ele>-1.3</ele>
        <time>2016-05-27T12:16:00Z</time>
      </trkpt>
      <trkpt lat="43.08573" lon="5.90905">
        <ele>-2.27</ele>
        <time>2016-05-27T12:16:22Z</time>
      </trkpt>
      <trkpt lat="43.08553" lon="5.90904">
        <ele>-2.27</ele>
        <time>2016-05-27T12:16:39Z</time>
      </trkpt>
      <trkpt lat="43.0853" lon="5.90903">
        <ele>-2.75</ele>
        <time>2016-05-27T12:16:58Z</time>
      </trkpt>
      <trkpt lat="43.08505" lon="5.909">
        <ele>-2.75</ele>
        <time>2016-05-27T12:17:18Z</time>
      </trkpt>
      <trkpt lat="43.08489" lon="5.90899">
        <ele>-1.79</ele>
        <time>2016-05-27T12:17:31Z</time>
      </trkpt>
      <trkpt lat="43.08486" lon="5.909">
        <ele>-1.3</ele>
        <time>2016-05-27T12:17:34Z</time>
      </trkpt>
      <trkpt lat="43.08464" lon="5.90901">
        <ele>-2.27</ele>
        <time>2016-05-27T12:17:53Z</time>
      </trkpt>
      <trkpt lat="43.08451" lon="5.90905">
        <ele>-2.27</ele>
        <time>2016-05-27T12:18:05Z</time>
      </trkpt>
      <trkpt lat="43.08444" lon="5.90907">
        <ele>-2.75</ele>
        <time>2016-05-27T12:18:11Z</time>
      </trkpt>
      <trkpt lat="43.08424" lon="5.90914">
        <ele>-1.3</ele>
        <time>2016-05-27T12:18:29Z</time>
      </trkpt>
      <trkpt lat="43.08416" lon="5.90917">
        <ele>-0.82</ele>
        <time>2016-05-27T12:18:37Z</time>
      </trkpt>
      <trkpt lat="43.08402" lon="5.90929">
        <ele>-0.82</ele>
        <time>2016-05-27T12:18:51Z</time>
      </trkpt>
      <trkpt lat="43.08398" lon="5.90936">
        <ele>0.14</ele>
        <time>2016-05-27T12:18:56Z</time>
      </trkpt>
      <trkpt lat="43.08393" lon="5.90937">
        <ele>-0.34</ele>
        <time>2016-05-27T12:19:00Z</time>
      </trkpt>
      <trkpt lat="43.08391" lon="5.90936">
        <ele>-0.34</ele>
        <time>2016-05-27T12:19:02Z</time>
      </trkpt>
      <trkpt lat="43.08381" lon="5.90913">
        <ele>-2.75</ele>
        <time>2016-05-27T12:19:18Z</time>
      </trkpt>
      <trkpt lat="43.08372" lon="5.90902">
        <ele>-3.71</ele>
        <time>2016-05-27T12:19:27Z</time>
      </trkpt>
      <trkpt lat="43.08359" lon="5.90892">
        <ele>-6.11</ele>
        <time>2016-05-27T12:19:39Z</time>
      </trkpt>
      <trkpt lat="43.08339" lon="5.90879">
        <ele>-5.15</ele>
        <time>2016-05-27T12:19:57Z</time>
      </trkpt>
      <trkpt lat="43.08326" lon="5.90871">
        <ele>-5.63</ele>
        <time>2016-05-27T12:20:10Z</time>
      </trkpt>
      <trkpt lat="43.08313" lon="5.90867">
        <ele>-2.75</ele>
        <time>2016-05-27T12:20:20Z</time>
      </trkpt>
      <trkpt lat="43.08297" lon="5.90858">
        <ele>-2.75</ele>
        <time>2016-05-27T12:20:33Z</time>
      </trkpt>
      <trkpt lat="43.08282" lon="5.90842">
        <ele>-2.75</ele>
        <time>2016-05-27T12:20:46Z</time>
      </trkpt>
      <trkpt lat="43.08282" lon="5.90839">
        <ele>-2.27</ele>
        <time>2016-05-27T12:20:48Z</time>
      </trkpt>
      <trkpt lat="43.08277" lon="5.90829">
        <ele>-3.23</ele>
        <time>2016-05-27T12:20:54Z</time>
      </trkpt>
      <trkpt lat="43.08267" lon="5.90794">
        <ele>-2.27</ele>
        <time>2016-05-27T12:21:13Z</time>
      </trkpt>
      <trkpt lat="43.08254" lon="5.90753">
        <ele>-3.23</ele>
        <time>2016-05-27T12:21:35Z</time>
      </trkpt>
      <trkpt lat="43.08236" lon="5.9072">
        <ele>-1.79</ele>
        <time>2016-05-27T12:21:55Z</time>
      </trkpt>
      <trkpt lat="43.08231" lon="5.90696">
        <ele>-1.79</ele>
        <time>2016-05-27T12:22:07Z</time>
      </trkpt>
      <trkpt lat="43.08219" lon="5.9066">
        <ele>-2.27</ele>
        <time>2016-05-27T12:22:26Z</time>
      </trkpt>
      <trkpt lat="43.082" lon="5.90651">
        <ele>-2.75</ele>
        <time>2016-05-27T12:22:42Z</time>
      </trkpt>
      <trkpt lat="43.08199" lon="5.90651">
        <ele>-2.75</ele>
        <time>2016-05-27T12:22:43Z</time>
      </trkpt>
      <trkpt lat="43.08183" lon="5.9065">
        <ele>-2.27</ele>
        <time>2016-05-27T12:22:56Z</time>
      </trkpt>
      <trkpt lat="43.08168" lon="5.90651">
        <ele>0.14</ele>
        <time>2016-05-27T12:23:13Z</time>
      </trkpt>
      <trkpt lat="43.0816" lon="5.90657">
        <ele>-0.82</ele>
        <time>2016-05-27T12:23:24Z</time>
      </trkpt>
      <trkpt lat="43.08153" lon="5.90665">
        <ele>-0.82</ele>
        <time>2016-05-27T12:23:38Z</time>
      </trkpt>
      <trkpt lat="43.08149" lon="5.90664">
        <ele>-0.34</ele>
        <time>2016-05-27T12:23:43Z</time>
      </trkpt>
      <trkpt lat="43.08146" lon="5.90638">
        <ele>0.14</ele>
        <time>2016-05-27T12:24:00Z</time>
      </trkpt>
      <trkpt lat="43.08162" lon="5.90637">
        <ele>-0.82</ele>
        <time>2016-05-27T12:24:14Z</time>
      </trkpt>
      <trkpt lat="43.08163" lon="5.90638">
        <ele>-0.82</ele>
        <time>2016-05-27T12:24:15Z</time>
      </trkpt>
      <trkpt lat="43.08169" lon="5.90655">
        <ele>-2.75</ele>
        <time>2016-05-27T12:24:28Z</time>
      </trkpt>
      <trkpt lat="43.0817" lon="5.90658">
        <ele>-2.75</ele>
        <time>2016-05-27T12:24:31Z</time>
      </trkpt>
      <trkpt lat="43.08176" lon="5.90674">
        <ele>-1.3</ele>
        <time>2016-05-27T12:24:43Z</time>
      </trkpt>
      <trkpt lat="43.08186" lon="5.9069">
        <ele>-1.79</ele>
        <time>2016-05-27T12:24:57Z</time>
      </trkpt>
      <trkpt lat="43.08185" lon="5.90702">
        <ele>-3.23</ele>
        <time>2016-05-27T12:25:08Z</time>
      </trkpt>
      <trkpt lat="43.08176" lon="5.90697">
        <ele>-4.19</ele>
        <time>2016-05-27T12:25:19Z</time>
      </trkpt>
      <trkpt lat="43.0817" lon="5.90694">
        <ele>-3.23</ele>
        <time>2016-05-27T12:25:31Z</time>
      </trkpt>
      <trkpt lat="43.08154" lon="5.90682">
        <ele>-2.27</ele>
        <time>2016-05-27T12:25:50Z</time>
      </trkpt>
      <trkpt lat="43.08131" lon="5.90669">
        <ele>-3.23</ele>
        <time>2016-05-27T12:26:17Z</time>
      </trkpt>
      <trkpt lat="43.08121" lon="5.90656">
        <ele>-1.3</ele>
        <time>2016-05-27T12:26:31Z</time>
      </trkpt>
      <trkpt lat="43.08119" lon="5.9065">
        <ele>-1.3</ele>
        <time>2016-05-27T12:26:35Z</time>
      </trkpt>
      <trkpt lat="43.08132" lon="5.9063">
        <ele>2.54</ele>
        <time>2016-05-27T12:26:52Z</time>
      </trkpt>
      <trkpt lat="43.08151" lon="5.90651">
        <ele>3.5</ele>
        <time>2016-05-27T12:27:11Z</time>
      </trkpt>
      <trkpt lat="43.08164" lon="5.90675">
        <ele>2.54</ele>
        <time>2016-05-27T12:27:30Z</time>
      </trkpt>
      <trkpt lat="43.0817" lon="5.90688">
        <ele>1.1</ele>
        <time>2016-05-27T12:27:42Z</time>
      </trkpt>
      <trkpt lat="43.08165" lon="5.90698">
        <ele>1.1</ele>
        <time>2016-05-27T12:27:53Z</time>
      </trkpt>
      <trkpt lat="43.08159" lon="5.90687">
        <ele>1.1</ele>
        <time>2016-05-27T12:28:04Z</time>
      </trkpt>
      <trkpt lat="43.08148" lon="5.90651">
        <ele>1.1</ele>
        <time>2016-05-27T12:28:28Z</time>
      </trkpt>
      <trkpt lat="43.08133" lon="5.90649">
        <ele>0.14</ele>
        <time>2016-05-27T12:28:46Z</time>
      </trkpt>
      <trkpt lat="43.08132" lon="5.90658">
        <ele>-1.79</ele>
        <time>2016-05-27T12:29:01Z</time>
      </trkpt>
      <trkpt lat="43.08149" lon="5.90662">
        <ele>-2.27</ele>
        <time>2016-05-27T12:29:25Z</time>
      </trkpt>
      <trkpt lat="43.08154" lon="5.90688">
        <ele>-1.79</ele>
        <time>2016-05-27T12:29:38Z</time>
      </trkpt>
      <trkpt lat="43.08143" lon="5.90685">
        <ele>-1.3</ele>
        <time>2016-05-27T12:29:44Z</time>
      </trkpt>
      <trkpt lat="43.08112" lon="5.90663">
        <ele>-2.27</ele>
        <time>2016-05-27T12:30:02Z</time>
      </trkpt>
      <trkpt lat="43.08104" lon="5.90659">
        <ele>-2.27</ele>
        <time>2016-05-27T12:30:19Z</time>
      </trkpt>
      <trkpt lat="43.08086" lon="5.90704">
        <ele>3.02</ele>
        <time>2016-05-27T12:30:43Z</time>
      </trkpt>
      <trkpt lat="43.08067" lon="5.90723">
        <ele>3.5</ele>
        <time>2016-05-27T12:30:58Z</time>
      </trkpt>
      <trkpt lat="43.0804" lon="5.90697">
        <ele>2.06</ele>
        <time>2016-05-27T12:31:19Z</time>
      </trkpt>
      <trkpt lat="43.08014" lon="5.9069">
        <ele>-6.59</ele>
        <time>2016-05-27T12:31:36Z</time>
      </trkpt>
      <trkpt lat="43.08007" lon="5.90674">
        <ele>-4.19</ele>
        <time>2016-05-27T12:31:47Z</time>
      </trkpt>
      <trkpt lat="43.08009" lon="5.90666">
        <ele>-4.19</ele>
        <time>2016-05-27T12:31:59Z</time>
      </trkpt>
      <trkpt lat="43.08011" lon="5.90666">
        <ele>-3.23</ele>
        <time>2016-05-27T12:32:16Z</time>
      </trkpt>
      <trkpt lat="43.08012" lon="5.90668">
        <ele>-1.79</ele>
        <time>2016-05-27T12:32:28Z</time>
      </trkpt>
      <trkpt lat="43.08013" lon="5.90669">
        <ele>-1.79</ele>
        <time>2016-05-27T12:32:41Z</time>
      </trkpt>
      <trkpt lat="43.08014" lon="5.90671">
        <ele>-1.79</ele>
        <time>2016-05-27T12:32:52Z</time>
      </trkpt>
      <trkpt lat="43.08015" lon="5.90672">
        <ele>-1.79</ele>
        <time>2016-05-27T12:33:06Z</time>
      </trkpt>
      <trkpt lat="43.08015" lon="5.90671">
        <ele>-1.79</ele>
        <time>2016-05-27T12:33:25Z</time>
      </trkpt>
      <trkpt lat="43.08015" lon="5.90671">
        <ele>-0.82</ele>
        <time>2016-05-27T12:33:42Z</time>
      </trkpt>
      <trkpt lat="43.08015" lon="5.90671">
        <ele>-0.82</ele>
        <time>2016-05-27T12:33:58Z</time>
      </trkpt>
      <trkpt lat="43.08016" lon="5.90672">
        <ele>-1.3</ele>
        <time>2016-05-27T12:34:12Z</time>
      </trkpt>
      <trkpt lat="43.08016" lon="5.9067">
        <ele>-1.3</ele>
        <time>2016-05-27T12:34:26Z</time>
      </trkpt>
      <trkpt lat="43.08016" lon="5.90669">
        <ele>-0.34</ele>
        <time>2016-05-27T12:34:41Z</time>
      </trkpt>
      <trkpt lat="43.08015" lon="5.90667">
        <ele>-0.34</ele>
        <time>2016-05-27T12:34:46Z</time>
      </trkpt>
    </trkseg>
  </trk>
</gpx>